Terminal Aerodrome Forecast
Issued by NWS

Home | Current Version | Previous Version | Text Only | Print | Product List | Glossary On
Versions: 1 2 3 4 5 6 7 8 9 10 11 12 13 14 15 16 17 18 19 20
422
FTUS41 KGYX 051728
TAFAUG
TAF
KAUG 051728Z 0518/0618 04010G18KT P6SM OVC013
     FM060100 36010KT 5SM -RA OVC007
     FM060900 36006KT 5SM -DZ BR OVC015
     FM061400 35009KT P6SM BKN035=

USA.gov is the U.S. government's official web portal to all federal, state and local government web resources and services.